Login
Access
Login with your mtb-forum.it nickname and password.


You do not have an account? Sign up here for free

giacomo1

Last training unit 14/10/2018
2
Followers
60 123 Km
itineraries
599 982 m
of total vertical gain
2220
hours of riding
27.1 Km/h
average speed
126
average HR


14/10/2018 Show to everybody penne 78.07 Km 835 m 02:57:28 26.39 Km\h Colnago C60
19/10/2017 Show to everybody Rocca Pretoro Bocca di valle 103.57 Km 936 m 03:48:39 27.18 Km\h Colnago C60
15/10/2017 Show to everybody Lanciano 109.6 Km 790 m 04:07:37 26.56 Km\h Colnago C60
12/10/2017 Show to everybody Penne Pianella 93.38 Km 1054 m 03:27:45 26.97 Km\h Colnago C60
10/10/2017 Show to everybody Pretoro 107.46 Km 846 m 03:58:32 27.03 Km\h Colnago C60
08/10/2017 Show to everybody Canosa 105.25 Km 505 m 03:48:29 27.64 Km\h Colnago C60
05/10/2017 Show to everybody Bocca di valle Bucchianico Chieti 105.46 Km 1248 m 03:59:06 26.46 Km\h Colnago C60
03/10/2017 Show to everybody Fara Ripa San Salvatore 93.66 Km 759 m 03:23:52 27.56 Km\h Colnago C60
01/10/2017 Show to everybody Canzano Castellalto 112.68 Km 861 m 04:13:10 26.7 Km\h Colnago C60
28/09/2017 Show to everybody Paglieta 110.61 Km 667 m 03:52:08 28.59 Km\h Colnago C60
24/09/2017 Show to everybody giro di Cellino 106.59 Km 850 m 03:56:51 27 Km\h Colnago C60
21/09/2017 Show to everybody giro di Masciarelli 127.55 Km 946 m 04:07:32 30.92 Km\h Colnago C60
19/09/2017 Show to everybody Atri Noataresco Montepagano 98.86 Km 1016 m 03:56:02 25.13 Km\h Colnago C60
17/09/2017 Show to everybody giro di Canzano 107.14 Km 1182 m 04:10:51 25.63 Km\h Colnago C60
14/09/2017 Show to everybody Rapino serramonacesca 106.5 Km 947 m 04:00:07 26.61 Km\h Colnago C60
12/09/2017 Show to everybody Penne Chieti 104.28 Km 1183 m 03:55:59 26.51 Km\h Colnago C60
10/09/2017 Show to everybody Atri Canzano Castellalto 117.42 Km 1141 m 04:30:21 26.06 Km\h Colnago C60
07/09/2017 Show to everybody Atri Castelnuovo Poggio Cono Castellalto Montepagano 110.05 Km 1284 m 04:21:50 25.22 Km\h Colnago C60
05/09/2017 Show to everybody Colombo 124.3 Km 734 m 04:31:20 27.49 Km\h Colnago C60
03/09/2017 Show to everybody Colombo Arielli Silvi 122.14 Km 684 m 04:28:45 27.27 Km\h Colnago C60
31/08/2017 Show to everybody Giro di Arsita + Chieti 132.3 Km 1480 m 05:00:41 26.4 Km\h Colnago C60
26/08/2017 Show to everybody Passolanciano 112.31 Km 1332 m 04:25:40 25.36 Km\h Colnago C60
24/08/2017 Show to everybody Atri Canzano Castellalto Roseto 104.32 Km 1173 m 04:08:40 25.17 Km\h Colnago C60
22/08/2017 Show to everybody Colombo 98.7 Km 687 m 03:26:00 28.75 Km\h Colnago C60
20/08/2017 Show to everybody Casacanditella 100.54 Km 699 m 03:46:25 26.64 Km\h Colnago C60
17/08/2017 Show to everybody Giro di Masciarelli 128.45 Km 886 m 04:12:11 30.56 Km\h Colnago C60
15/08/2017 Show to everybody Pretoro Roccamontepiano 94.73 Km 753 m 03:28:43 27.23 Km\h Colnago C60
13/08/2017 Show to everybody Pretoro BdV Guardiagrele Chieti 108.4 Km 1341 m 04:04:49 26.57 Km\h Colnago C60
10/08/2017 Show to everybody Bocca di valle 98.41 Km 686 m 03:32:38 27.77 Km\h Colnago C60
08/08/2017 Show to everybody Guardiagrele 100.54 Km 846 m 03:49:52 26.24 Km\h Colnago C60
05/08/2017 Show to everybody Rigopiano 119.26 Km 1400 m 04:24:07 27.09 Km\h Colnago C60
03/08/2017 Show to everybody Atri G. Vomano Roseto 91.13 Km 953 m 03:33:08 25.65 Km\h Colnago C60
01/08/2017 Show to everybody casalincontrada pretoro Guardiagrele 118.33 Km 1247 m 04:45:16 24.89 Km\h Colnago C60
29/07/2017 Show to everybody Passolanciano 110.92 Km 1321 m 04:24:11 25.19 Km\h Colnago C60
27/07/2017 Show to everybody Penna S. Andrea Atri 105.88 Km 1077 m 03:55:09 27.02 Km\h Colnago C60
25/07/2017 Show to everybody 3 ciminiere 33.06 Km 206 m 01:22:18 24.1 Km\h Colnago C60
23/07/2017 Show to everybody GF Angelini 93.83 Km 1178 m 02:52:36 32.62 Km\h Colnago C60
20/07/2017 Show to everybody Penne Mirabello 98.64 Km 1236 m 03:47:39 26 Km\h Colnago C60
18/07/2017 Show to everybody Canzano 104.48 Km 1175 m 03:59:36 26.16 Km\h Colnago C60
15/07/2017 Show to everybody Farindola Vestea Chieti 119.36 Km 1580 m 04:48:30 24.82 Km\h Colnago C60
13/07/2017 Show to everybody Vacri guardiagrele TOLLO 100.52 Km 909 m 03:53:17 25.85 Km\h Colnago C60
11/07/2017 Show to everybody BdV Canosa Ortona 117.24 Km 830 m 04:09:49 28.16 Km\h Colnago C60
09/07/2017 Show to everybody Pilone 133.49 Km 993 m 04:55:22 27.12 Km\h Colnago C60
06/07/2017 Show to everybody Giro masciarelli 131.63 Km 1023 m 04:15:48 30.87 Km\h Colnago C60
04/07/2017 Show to everybody Pian delle mele 102.74 Km 874 m 03:50:33 26.74 Km\h Colnago C60
29/06/2017 Show to everybody Pretoro Serra Chieti 118.85 Km 1049 m 04:13:39 28.11 Km\h Colnago C60
27/06/2017 Show to everybody Pian delle Mele 78.18 Km 814 m 02:56:31 26.57 Km\h Colnago C60
25/06/2017 Show to everybody pian delle mele 112.42 Km 1237 m 04:25:59 25.36 Km\h Colnago C60
22/06/2017 Show to everybody bocca di valle 109.36 Km 755 m 03:46:20 28.99 Km\h Colnago C60
20/06/2017 Show to everybody test posizione 70.19 Km 704 m 02:30:38 27.96 Km\h Colnago C60
18/06/2017 Show to everybody Passo S. Leonardo 139.91 Km 1741 m 05:21:04 26.15 Km\h Colnago C60
15/06/2017 Show to everybody giro di Palombaro 119.96 Km 1375 m 04:09:53 28.8 Km\h Colnago C60
13/06/2017 Show to everybody Pretoro 98.25 Km 865 m 03:31:48 27.83 Km\h Colnago C60
11/06/2017 Show to everybody Roccamontepiano Pretoro Guardiagrele 105.72 Km 1028 m 03:59:08 26.53 Km\h Colnago C60
08/06/2017 Show to everybody giro di Masciarelli 128.53 Km 958 m 04:15:33 30.18 Km\h Colnago C60
06/06/2017 Show to everybody Bocca di valle Ripa teatina 107.07 Km 849 m 03:48:32 28.11 Km\h Colnago C60
03/06/2017 Show to everybody Colle marmo Atri 101.35 Km 1353 m 04:07:31 24.57 Km\h Colnago C60
01/06/2017 Show to everybody Cesi Castilenti 82.79 Km 687 m 03:01:22 27.39 Km\h Colnago C60
29/05/2017 Show to everybody Colle Marmo 98.15 Km 1360 m 03:54:22 25.13 Km\h Colnago C60
27/05/2017 Show to everybody Bocca di valle 100.17 Km 719 m 03:39:43 27.36 Km\h Colnago C60
23/05/2017 Show to everybody scarico 63.54 Km 410 m 02:22:08 26.82 Km\h Colnago C60
21/05/2017 Show to everybody 9 colli 2017 204.23 Km 3849 m 07:38:31 26.72 Km\h Colnago C60
18/05/2017 Show to everybody Scarico 9 colli 71.74 Km 488 m 02:38:01 27.24 Km\h Colnago C60
16/05/2017 Show to everybody Rapino 98.8 Km 927 m 03:33:40 27.75 Km\h Colnago C60
14/05/2017 Show to everybody Block Haus da Roccamorice 121.92 Km 1919 m 05:07:06 23.82 Km\h Colnago C60
11/05/2017 Show to everybody Lanciano Castelfrentano Orsogna Tollo 109.86 Km 1041 m 03:51:10 28.51 Km\h Colnago C60
09/05/2017 Show to everybody Atri Pianura Castelnuovo Montegualtieri cermignano Cellino Atri Pineto Mutignano Pineto Silvi alta 138.11 Km 2067 m 05:31:30 25 Km\h Colnago C60
06/05/2017 Show to everybody Paglieta Atessa Casoli S. Domenico Tollo 141.75 Km 1394 m 04:59:54 28.36 Km\h Colnago C60
05/05/2017 Show to everybody scarico 43.38 Km 426 m 01:41:12 25.72 Km\h Colnago C60
04/05/2017 Show to everybody Fossacesia 91 Km 633 m 03:17:41 27.62 Km\h Colnago C60
02/05/2017 Show to everybody Atri Cellino Penne Montebello Vestea Cepagatti Rosciano Chieti Francavilla Montesilvano Colle 159.91 Km 2562 m 06:24:14 24.97 Km\h Colnago C60
29/04/2017 Show to everybody Giro Masciarelli + Chieti 142.32 Km 1492 m 04:52:14 29.22 Km\h Colnago C60
27/04/2017 Show to everybody Casalincontrada Manoppello scalo 81.91 Km 610 m 03:00:54 27.17 Km\h Colnago C60
25/04/2017 Show to everybody GF Colli Teatini 130.04 Km 2323 m 04:43:29 27.52 Km\h Colnago C60
22/04/2017 Show to everybody Fossacesia Casoli Guardiagrele 130.47 Km 963 m 04:22:00 29.88 Km\h Colnago C60
18/04/2017 Show to everybody Bocca di Valle Fara Bucchianico Colle Marcone Chiti San Martino 113.63 Km 1296 m 04:13:05 26.94 Km\h Colnago C60
15/04/2017 Show to everybody Rigopiano Farindola Vestea Cepagatti Chieti San Martino 133.74 Km 2104 m 05:40:48 23.55 Km\h Colnago C60
13/04/2017 Show to everybody Lanciano castelfrentano Orsogna Miglianico Ripa Teatina 118.54 Km 1181 m 04:12:57 28.12 Km\h Colnago C60
11/04/2017 Show to everybody Pian delle mele 115.41 Km 1050 m 04:12:35 27.41 Km\h Colnago C60
09/04/2017 Show to everybody Giro di Cellino 103.4 Km 895 m 03:46:55 27.34 Km\h Colnago C60
06/04/2017 Show to everybody Penne 84.08 Km 768 m 03:06:49 27 Km\h Colnago C60
04/04/2017 Show to everybody Colombo Guardiagrele Fara 108.57 Km 806 m 03:47:24 28.65 Km\h Colnago C60
01/04/2017 Show to everybody Fossacesia Casoli Fara S. Martino Palombaro Pennapiedimonte Fara 150.05 Km 1338 m 04:59:49 30.03 Km\h Colnago C60
30/03/2017 Show to everybody Atri Roseto 76.61 Km 577 m 02:51:36 26.79 Km\h Colnago C60
28/03/2017 Show to everybody Colombo Guardiagrele Fara Ripa Teatina 105.42 Km 858 m 03:47:19 27.83 Km\h Colnago C60
26/03/2017 Show to everybody GF Michettiana 88.07 Km 1232 m 02:38:34 33.33 Km\h Colnago C60
23/03/2017 Show to everybody Rapino 89.77 Km 442 m 03:13:49 27.79 Km\h Colnago C60
21/03/2017 Show to everybody Fara Rapino Pian delle mele 109.7 Km 991 m 03:58:16 27.62 Km\h Colnago C60
19/03/2017 Show to everybody Tollo Canosa Bocca di Valle Pian delle mele Colle spaccato 117.72 Km 1528 m 04:38:03 25.4 Km\h Colnago C60
16/03/2017 Show to everybody Atri Notaresco Montepagano Montes. Colle 91.97 Km 1027 m 03:28:19 26.49 Km\h Colnago C60
14/03/2017 Show to everybody Ripa Teatina Fara Pretoro Colle spaccato 102.02 Km 1040 m 03:51:12 26.48 Km\h Colnago C60
12/03/2017 Show to everybody Popoli Vittorito Raiano 143.72 Km 839 m 04:51:51 29.55 Km\h Colnago C60
09/03/2017 Show to everybody Atri Guardia Vomano Notaresco Grasciano Giulianova 100.04 Km 900 m 03:46:28 26.5 Km\h Colnago C60
04/03/2017 Show to everybody Atri Penne Pianella Cepagatti 90.02 Km 1106 m 03:29:55 25.73 Km\h Colnago C60
04/03/2017 Show to everybody Pescara Atri 22.95 Km 415 m 01:04:15 21.43 Km\h Colnago C60
02/03/2017 Show to everybody Atri Roseto Casoli Atri 95.37 Km 1113 m 03:44:01 25.54 Km\h Colnago C60
28/02/2017 Show to everybody Colombo Ortona 75.69 Km 519 m 02:50:33 26.63 Km\h Colnago C60
26/02/2017 Show to everybody GF Masciarelli 127.92 Km 1143 m 03:42:25 34.51 Km\h Colnago C60
23/02/2017 Show to everybody Cesi A/R 64.79 Km 453 m 02:20:16 27.71 Km\h Colnago C60
21/02/2017 Show to everybody Atri Guardia Vomano Montepagano Roseto 92.23 Km 1023 m 03:38:11 25.36 Km\h Colnago C60
19/02/2017 Show to everybody Lanciano Orsogna 114.74 Km 1006 m 04:11:20 27.39 Km\h Colnago C60
16/02/2017 Show to everybody Atri Cesi Penne Collecorvino 98.43 Km 1396 m 03:55:09 25.12 Km\h Colnago C60
14/02/2017 Show to everybody Orsogna Guardiagrele 97.13 Km 727 m 03:32:10 27.47 Km\h Colnago C60
12/02/2017 Show to everybody Giro di Teramo 121.05 Km 570 m 03:54:50 30.93 Km\h Colnago C60
05/02/2017 Show to everybody San Benedetto 126.78 Km 218 m 04:01:29 31.5 Km\h Colnago C60
02/02/2017 Show to everybody Mutignano Roseto Mutignano 78.48 Km 607 m 02:56:41 26.65 Km\h Colnago C60
31/01/2017 Show to everybody Giulianova Cologna Notaresco Atri 95.17 Km 963 m 03:34:28 26.63 Km\h Colnago C60
29/01/2017 Show to everybody Casalbordino 123.62 Km 774 m 04:15:15 29.06 Km\h Colnago C60
15/01/2017 Show to everybody martinsicuro 127.47 Km 292 m 04:06:28 31.03 Km\h Colnago C60
14/01/2017 Show to everybody Atri Castelnuovo Roseto Cappelle 103.26 Km 933 m 03:53:06 26.58 Km\h Colnago C60
04/01/2017 Show to everybody Atri Castellalto Cologna Montepagano 106.14 Km 1310 m 04:08:32 25.62 Km\h Colnago C60
01/01/2017 Show to everybody Fara 81.38 Km 292 m 02:53:27 28.15 Km\h Colnago C60
28/12/2016 Show to everybody Grasciano 93.31 Km 440 m 03:14:27 28.79 Km\h Colnago C60
26/12/2016 Show to everybody Cologna 75.38 Km 373 m 02:51:04 26.44 Km\h Colnago C60
25/12/2016 Show to everybody Giro di Fara 86.87 Km 395 m 02:55:57 29.62 Km\h Colnago C60
22/12/2016 Show to everybody Montepagano 82.34 Km 338 m 02:56:30 27.99 Km\h Colnago C60
18/12/2016 Show to everybody Fossacesia 103 Km 641 m 03:40:22 28.04 Km\h Colnago C60
11/12/2016 Show to everybody Fossacesia 100.74 Km 626 m 03:39:40 27.52 Km\h Colnago C60
10/12/2016 Show to everybody Vasto 179.9 Km 1143 m 05:49:38 30.87 Km\h Colnago C60
08/12/2016 Show to everybody Orsogna 97.37 Km 549 m 03:32:15 27.53 Km\h Colnago C60
04/12/2016 Show to everybody fossacesia 100.49 Km 621 m 03:36:38 27.83 Km\h Colnago C60
01/12/2016 Show to everybody Cologna Montepagano 81.85 Km 352 m 02:59:53 27.3 Km\h Colnago C60
27/11/2016 Show to everybody Pilone 113.32 Km 1007 m 04:25:21 25.62 Km\h Colnago C60
24/11/2016 Show to everybody Penne Picciano 87.24 Km 953 m 03:21:20 26 Km\h Colnago C60
22/11/2016 Show to everybody Orsogna (da Tollo) 87.41 Km 518 m 03:08:34 27.81 Km\h Colnago C60
20/11/2016 Show to everybody Guardiagrele 136.89 Km 925 m 04:51:44 28.15 Km\h Colnago C60
17/11/2016 Show to everybody Orsogna 90.58 Km 553 m 03:20:14 27.14 Km\h Colnago C60
14/11/2016 Show to everybody Atri 55.92 Km 602 m 02:18:58 24.14 Km\h Colnago C60
10/11/2016 Show to everybody Penne Loreto Pianella S. Teresa 88.14 Km 969 m 03:25:56 25.68 Km\h Colnago C60
07/11/2016 Show to everybody Ati Notaresco Giulianova 91.74 Km 787 m 03:22:37 27.17 Km\h Colnago C60
06/11/2016 Show to everybody Ortona 75.25 Km 405 m 03:03:17 24.63 Km\h Colnago C60
04/11/2016 Show to everybody Penne Loreto Pianella 84.27 Km 960 m 03:11:11 26.45 Km\h Colnago C60
01/11/2016 Show to everybody San Giovanni in Venere - San Leonardo 111.02 Km 840 m 03:59:20 27.83 Km\h Colnago C60
30/10/2016 Show to everybody Atri Notaresco Cologna Colli Pescara 108.1 Km 1016 m 04:01:48 26.82 Km\h Colnago C60
28/10/2016 Show to everybody Atri Notaresco montepagano 87.68 Km 903 m 03:16:00 26.84 Km\h Colnago C60
25/10/2016 Show to everybody Roccamontepiano Pretoro Rapino 102.43 Km 925 m 03:52:27 26.44 Km\h Colnago C60
23/10/2016 Show to everybody Colombo 104.22 Km 433 m 03:37:11 28.79 Km\h Colnago C60
20/10/2016 Show to everybody Atri Roseto 87.84 Km 603 m 03:13:39 27.22 Km\h Colnago C60
18/10/2016 Show to everybody roseto 86.42 Km 107 m 03:05:06 28.01 Km\h Colnago C60
16/10/2016 Show to everybody Guardiagrele 107.48 Km 698 m 03:30:07 30.69 Km\h Colnago C60
13/10/2016 Show to everybody Orsogna 96.83 Km 620 m 03:27:37 27.98 Km\h Colnago C60
09/10/2016 Show to everybody Pilone 115.37 Km 958 m 04:18:35 26.77 Km\h Colnago C60
04/10/2016 Show to everybody Bocca di valle - collina spaccata 103.8 Km 915 m 03:46:20 27.52 Km\h Colnago C60
02/10/2016 Show to everybody Montepagano Cologna Grasciano Giulianova 87.27 Km 412 m 02:58:31 29.33 Km\h Colnago C60
29/09/2016 Show to everybody Bocca di valle 97.69 Km 713 m 03:27:34 28.24 Km\h Colnago C60
27/09/2016 Show to everybody 3 Ciminiere Atri Guardia Vomano Grasciano Giulianova 100.44 Km 894 m 03:42:40 27.06 Km\h Colnago C60
25/09/2016 Show to everybody Ortona 75.85 Km 351 m 02:53:16 26.27 Km\h Colnago C60
24/09/2016 Show to everybody Fossacesia Lanciano Castelfrentano Orsogna 118.05 Km 999 m 04:17:58 27.46 Km\h Colnago C60
22/09/2016 Show to everybody Atri Notaresco Grasciano Giulianova 100.06 Km 782 m 03:43:51 26.82 Km\h Colnago C60
20/09/2016 Show to everybody Atri Notaresco Cologna Giulianova Roseto 93.86 Km 829 m 03:25:58 27.34 Km\h Colnago C60
18/09/2016 Show to everybody Orsogna 111.55 Km 530 m 03:40:50 30.31 Km\h Colnago C60
16/09/2016 Show to everybody Sorripe 67.67 Km 762 m 02:43:09 24.89 Km\h Colnago C60
15/09/2016 Show to everybody Lanciano Mozzagrogna Fossacesia 115.02 Km 860 m 04:06:57 27.95 Km\h Colnago C60
14/09/2016 Show to everybody Cepagatti 61.48 Km 534 m 02:10:52 28.19 Km\h Colnago C60
13/09/2016 Show to everybody Roccamontepiano Pretoro Bocca di Valle Guardiagrele Orsogna Tollo 108.64 Km 1063 m 04:04:51 26.62 Km\h Colnago C60
12/09/2016 Show to everybody Città S. Angelo 46.6 Km 388 m 01:54:36 24.4 Km\h Colnago C60
11/09/2016 Show to everybody giulianova 88.19 Km 342 m 03:02:21 29.02 Km\h Colnago C60
08/09/2016 Show to everybody Atri Notaresco Cologna Roseto 87.79 Km 863 m 03:09:36 27.78 Km\h Colnago C60
06/09/2016 Show to everybody Atri Notaresco Montepagano Roseto 88.77 Km 831 m 03:19:46 26.66 Km\h Colnago C60
04/09/2016 Show to everybody Orsogna Guardiagrele Pian delle Mele 117.15 Km 1136 m 04:21:57 26.83 Km\h Colnago C60
03/09/2016 Show to everybody marruccina 84.98 Km 801 m 03:10:46 26.73 Km\h Colnago C60
01/09/2016 Show to everybody Vacri Guardiagrele Orsogna Tollo 92.59 Km 783 m 03:24:58 27.1 Km\h Colnago C60
30/08/2016 Show to everybody Fossacesia 95.48 Km 631 m 03:21:22 28.45 Km\h Colnago C60
27/08/2016 Show to everybody Bisenti Arsita Penne 106.29 Km 1151 m 04:05:06 26.02 Km\h Colnago C60
25/08/2016 Show to everybody Orsogna melone 94.61 Km 612 m 03:20:27 28.32 Km\h Colnago C60
23/08/2016 Show to everybody Atri Pianura Vomano Roseto 73.92 Km 567 m 02:44:05 27.03 Km\h Colnago C60
21/08/2016 Show to everybody Cellino Castelnuovo Roseto 102.77 Km 813 m 03:44:17 27.49 Km\h Colnago C60
18/08/2016 Show to everybody Giulianova Mosciano 90.26 Km 388 m 03:04:38 29.33 Km\h Colnago C60
16/08/2016 Show to everybody Bisenti Pilone Cellino Atri 102.67 Km 1323 m 03:46:55 27.15 Km\h Colnago C60
13/08/2016 Show to everybody Atri Guardia Vomano Giulianova 109.61 Km 933 m 04:03:53 26.97 Km\h Colnago C60
11/08/2016 Show to everybody Penne Loreto 83.77 Km 755 m 03:09:03 26.59 Km\h Colnago C60
09/08/2016 Show to everybody Pretoro Rapino 100.75 Km 801 m 03:45:19 26.83 Km\h Colnago C60
07/08/2016 Show to everybody Castilenti Cellino Notaresco Cologna 116.85 Km 1141 m 04:23:52 26.57 Km\h Colnago C60
04/08/2016 Show to everybody Atri Notaresco Grasciano Giulianova 90.75 Km 775 m 03:25:36 26.48 Km\h Colnago C60
02/08/2016 Show to everybody Arti Guardia vomano Cologna Paese 96.42 Km 927 m 03:32:05 27.28 Km\h Colnago C60
31/07/2016 Show to everybody Torre de Passeri Chieti 110.59 Km 697 m 03:42:07 29.87 Km\h Colnago C60
28/07/2016 Show to everybody Cesi Atri Roseto 97.48 Km 792 m 03:34:51 27.22 Km\h Colnago C60
21/07/2016 Show to everybody Caldari Treglio 91.6 Km 749 m 03:32:14 25.89 Km\h Colnago C60
19/07/2016 Show to everybody Collemarmo Cellino Atri 98.16 Km 1273 m 03:50:09 25.59 Km\h Colnago C60
17/07/2016 Show to everybody Cesi Atri 116.42 Km 1083 m 04:20:09 26.85 Km\h Colnago C60
14/07/2016 Show to everybody Orsogna 90.24 Km 536 m 03:19:50 27.09 Km\h Colnago C60
10/07/2016 Show to everybody Bocca di valle Guardiagrele Tollo 120.62 Km 804 m 04:24:16 27.39 Km\h Colnago C60
07/07/2016 Show to everybody Roccamontepiano 84.81 Km 648 m 03:04:28 27.59 Km\h Colnago C60
05/07/2016 Show to everybody Orsogna Filetto G. Teatino 90.91 Km 584 m 03:15:03 27.97 Km\h Colnago C60
03/07/2016 Show to everybody mosciano 103.05 Km 617 m 03:34:15 28.86 Km\h Colnago C60
30/06/2016 Show to everybody Giulianova Cologna Paese Notaresco Atri 89.69 Km 758 m 03:16:07 27.44 Km\h Colnago C60
28/06/2016 Show to everybody Atri Notaresco Montepagano 86.14 Km 846 m 03:11:20 27.01 Km\h Colnago C60
26/06/2016 Show to everybody Penne Villa Cipressi 90.44 Km 1064 m 03:30:02 25.84 Km\h Colnago C60
23/06/2016 Show to everybody Penne campotino 77.58 Km 790 m 02:54:08 26.73 Km\h Colnago C60
21/06/2016 Show to everybody Villa Mascitti (raggio rotto) 65.46 Km 313 m 02:32:05 25.83 Km\h Colnago C60
18/06/2016 Show to everybody Cologna Notaresco Atri 91.74 Km 776 m 03:26:14 26.69 Km\h Colnago C60
16/06/2016 Show to everybody Atri Roseto 73.46 Km 572 m 02:43:57 26.89 Km\h Colnago C60
14/06/2016 Show to everybody Roseto Casoli Atri 80.2 Km 658 m 02:56:26 27.27 Km\h Colnago C60
12/06/2016 Show to everybody Pineto Colombo Ortona 109.63 Km 360 m 03:47:30 28.91 Km\h Colnago C60
09/06/2016 Show to everybody Giro di Colombo 82.09 Km 466 m 02:57:55 27.68 Km\h Colnago C60
07/06/2016 Show to everybody Atri G.Vomano Montepagano Roseto 93.13 Km 932 m 03:30:11 26.59 Km\h Colnago C60
05/06/2016 Show to everybody Silvi (rottura raggio) 21.91 Km 33 m 00:50:21 26.11 Km\h Colnago C60
02/06/2016 Show to everybody Fossacesia 102.63 Km 598 m 03:35:18 28.6 Km\h Colnago C60
31/05/2016 Show to everybody Orsogna 92.35 Km 569 m 03:20:51 27.59 Km\h Colnago C60
29/05/2016 Show to everybody Pilone 117.54 Km 895 m 04:05:46 28.69 Km\h Colnago C60
26/05/2016 Show to everybody scarico in pianura 74.14 Km 82 m 02:32:47 29.12 Km\h Colnago C60
24/05/2016 Show to everybody passeggiata 27.35 Km 32 m 01:05:39 25 Km\h Colnago C60
22/05/2016 Show to everybody 9 colli 205.59 Km 3722 m 07:42:34 26.67 Km\h Colnago C60
18/05/2016 Show to everybody Giulianova Cologna Paese Montepagano Roseto (scarico) 76.75 Km 339 m 02:40:43 28.65 Km\h Colnago C60
15/05/2016 Show to everybody San Gabriele 149.09 Km 688 m 04:40:56 31.84 Km\h Colnago C60
13/05/2016 Show to everybody Atri Pineto 55.73 Km 488 m 02:00:50 27.67 Km\h Colnago C60
10/05/2016 Show to everybody sfr 61.63 Km 770 m 02:24:49 25.54 Km\h Colnago C60
08/05/2016 Show to everybody Castelli Rigopiano Penne 142.7 Km 1588 m 05:11:00 27.53 Km\h Colnago C60
05/05/2016 Show to everybody Atri Cellino Cesi Penne Farindola Vestea Tarallo Cepagatti Rosciano Chieti 167.4 Km 2509 m 06:36:05 25.36 Km\h Colnago C60
30/04/2016 Show to everybody esi Cellino Castelnuovo Roseto 104.16 Km 852 m 03:41:53 28.17 Km\h Colnago C60
28/04/2016 Show to everybody Giulianova Mosciano Notaresco Atri 104.26 Km 971 m 03:52:00 26.96 Km\h Colnago C60
26/04/2016 Show to everybody Atri Cellino Cesi Penne S.M. Mirabello Tarallo Pianella Cepagatti Chieti F.villa 144.02 Km 2062 m 05:35:21 25.77 Km\h Colnago C60
23/04/2016 Show to everybody scarico 76.52 Km 99 m 02:42:27 28.26 Km\h Colnago C60
21/04/2016 Show to everybody Mosciano (scarico) 99.46 Km 330 m 03:26:42 28.87 Km\h Colnago C60
19/04/2016 Show to everybody Cesi A/R (scarico) 74 Km 442 m 02:38:34 28 Km\h Colnago C60
17/04/2016 Show to everybody Bisenti Pilone Villa Vomano Penna S. Andrea Cellino Atri 123.81 Km 1620 m 04:56:19 25.07 Km\h Colnago C60
14/04/2016 Show to everybody Penne Farindola Montebello pianella Rosciano Pretoro 160.89 Km 2118 m 06:24:23 25.11 Km\h Colnago C60
12/04/2016 Show to everybody SFR 5x4` poi Atri Pineto in agilità 78.37 Km 912 m 03:06:10 25.26 Km\h Colnago C60
10/04/2016 Show to everybody San Benedetto 124.6 Km 131 m 04:08:58 30.03 Km\h Colnago C60
07/04/2016 Show to everybody Bisenti Arsita Penne Pianella Cepagatti Rosciano Chieti F.villa 152.04 Km 1620 m 05:38:37 26.94 Km\h Colnago C60
03/04/2016 Show to everybody Manoppello Roccamontepiano Pretoro Rapino F.villa 112.61 Km 882 m 03:49:32 29.44 Km\h Colnago C60
31/03/2016 Show to everybody Atri S. Pietro Cellino Cesi Penne Mirabello Tarallo Pianella Cepagatti Chieti F.villa (tutte le salite al medio) 146.67 Km 2002 m 05:46:16 25.41 Km\h Colnago C60
28/03/2016 Show to everybody MontepaganoGrasciano Giulianova Silvi Atri CS Angelo 127.3 Km 1201 m 04:46:13 26.69 Km\h Colnago C60
25/03/2016 Show to everybody Atri Cesi Penne Collecorvino Congiunti 106.16 Km 1323 m 04:15:24 24.94 Km\h Colnago C60
22/03/2016 Show to everybody Montepagano Giulianova 79.78 Km 312 m 02:41:18 29.68 Km\h Colnago C60
20/03/2016 Show to everybody GF Francavilla 96.54 Km 1312 m 03:08:05 30.8 Km\h Colnago C60
18/03/2016 Show to everybody Montepagano Cologna Giulianova 80.9 Km 334 m 02:53:19 28.01 Km\h Colnago C60
15/03/2016 Show to everybody Giro del Pilone 116.79 Km 1012 m 04:22:13 26.72 Km\h Colnago C60
11/03/2016 Show to everybody Atri Notaresco Montepagano Roseto 91.09 Km 841 m 03:21:14 27.16 Km\h Colnago C60
08/03/2016 Show to everybody 3ciminiere Bivio Cellino Cesi Penne Picciano Montesilvano (4 salite al medio e veloce) 108.46 Km 1373 m 04:16:42 25.35 Km\h Colnago C60
06/03/2016 Show to everybody Caldari Frisa Badia Poggiofiorito Ortona 111.06 Km 912 m 04:03:17 27.39 Km\h Colnago C60
03/03/2016 Show to everybody Atri Roseto 82.99 Km 583 m 03:04:49 26.94 Km\h Colnago C60
01/03/2016 Show to everybody Atri Cesi Penne Loreto pianella Cepagatti Chieti Francavilla (salite al medio e veloce) 126.43 Km 1677 m 05:04:44 24.89 Km\h Colnago C60
28/02/2016 Show to everybody giro di Colombo ripa teatina 96.17 Km 1184 m 03:45:46 25.56 Km\h Colnago C60
25/02/2016 Show to everybody Roseto Montepagano Grasciano Giulianova Pescara 87.38 Km 434 m 03:10:28 27.52 Km\h Colnago C60
23/02/2016 Show to everybody Atri Guardia Vomano Montepagano Roseto 97.37 Km 962 m 03:44:58 25.97 Km\h Colnago C60
16/02/2016 Show to everybody C.S. Angelo Elice 75.76 Km 1174 m 03:07:24 24.26 Km\h Colnago C60
14/02/2016 Show to everybody fossacesia 94.33 Km 513 m 03:18:14 28.55 Km\h Colnago C60
09/02/2016 Show to everybody Atri - Montefino - Cesi - Penne - Loreto - Cartiera Pianella Cepagatti (4salite al medio) 112.84 Km 1401 m 04:24:38 25.58 Km\h Colnago C60
05/02/2016 Show to everybody Penne montebello vestea pianella chieti (3 salite al medio) 109.35 Km 1621 m 04:26:51 24.59 Km\h Colnago C60
02/02/2016 Show to everybody Atri Guardia V. Cologna Montepagano (2 salite al medio) 87.93 Km 1207 m 03:16:15 26.88 Km\h Colnago C60
28/01/2016 Show to everybody Penne Chieti (2 salite al medio, 1 alla soglia, 1 fondo lento) 106.21 Km 1355 m 04:07:42 25.73 Km\h Colnago C60
26/01/2016 Show to everybody Orsogna 83.85 Km 739 m 03:04:54 27.21 Km\h Colnago C60
24/01/2016 Show to everybody Giro di Teramo 121.63 Km 899 m 04:01:17 30.25 Km\h Colnago C60
21/01/2016 Show to everybody Cologna paese Grasciano Giulianova (2 salite al medio) 97.13 Km 937 m 03:30:47 27.65 Km\h Colnago C60
19/01/2016 Show to everybody CS Angelo 57.02 Km 793 m 02:12:48 25.76 Km\h Colnago C60
16/01/2016 Show to everybody Pretoro 89.19 Km 969 m 03:29:47 25.51 Km\h Colnago C60
14/01/2016 Show to everybody Cologna Notaresco Roseto 94.44 Km 568 m 03:21:10 28.17 Km\h Colnago C60
12/01/2016 Show to everybody 3 ciminiere fontanelle Roseto (vento di bufera) 74.18 Km 689 m 03:12:05 23.17 Km\h Colnago C60
10/01/2016 Show to everybody Vasto A/R 123.43 Km 1058 m 04:07:42 29.9 Km\h Colnago C60
08/01/2016 Show to everybody CS Angelo 47.26 Km 489 m 01:49:04 26 Km\h Colnago C60
07/01/2016 Show to everybody Torrevecchia teatina Pianella Cartiera 74.28 Km 834 m 02:54:29 25.54 Km\h Colnago C60
05/01/2016 Show to everybody Picciano 68.26 Km 598 m 02:48:44 24.27 Km\h Colnago C60
02/01/2016 Show to everybody Filetto Orsogna 101.4 Km 1080 m 03:50:50 26.36 Km\h Colnago C60
29/12/2015 Show to everybody pineto Penne 89.76 Km 828 m 03:29:37 25.69 Km\h Colnago C60
26/12/2015 Show to everybody s. stefano 88.9 Km 519 m 03:24:30 26.08 Km\h Colnago C60
24/12/2015 Show to everybody Casacanditella Guardiagrele Tollo 104.39 Km 928 m 03:50:04 27.22 Km\h Colnago C60
22/12/2015 Show to everybody Tollo Orsogna Ortona 79.9 Km 587 m 03:01:31 26.41 Km\h Colnago C60
20/12/2015 Show to everybody Giro di Salle 119.26 Km 1371 m 04:37:53 25.75 Km\h Colnago C60
17/12/2015 Show to everybody penne pianella 88.87 Km 1185 m 03:32:44 25.06 Km\h Colnago C60
15/12/2015 Show to everybody Moggio da Orsogna 89.95 Km 894 m 03:29:13 25.8 Km\h Colnago C60
13/12/2015 Show to everybody Orsogna 106.93 Km 806 m 04:17:50 24.88 Km\h Colnago C60
12/12/2015 Show to everybody Bisenti 91.09 Km 872 m 03:23:41 26.83 Km\h Colnago C60
08/12/2015 Show to everybody Fossacesia 100.73 Km 826 m 03:42:55 27.11 Km\h Colnago C60
06/12/2015 Show to everybody Guardiagrele 105.47 Km 932 m 03:46:35 27.93 Km\h Colnago C60
03/12/2015 Show to everybody Penne Pianella 88.79 Km 1162 m 03:36:29 24.61 Km\h Colnago C60
01/12/2015 Show to everybody Cologna paese Notaresco Roseto 91.12 Km 737 m 03:14:39 28.09 Km\h Colnago C60
29/11/2015 Show to everybody fossacesia 107.15 Km 708 m 04:01:21 26.64 Km\h Colnago C60
23/11/2015 Show to everybody collinare 54.21 Km 422 m 01:52:39 28.88 Km\h Colnago C60
22/11/2015 Show to everybody Roseto Villa cipressi 90.8 Km 805 m 03:23:03 26.83 Km\h Colnago C60
19/11/2015 Show to everybody Cesi Villa s. Romualdo Cs. Angelo 93.4 Km 1016 m 03:39:49 25.49 Km\h Colnago C60
17/11/2015 Show to everybody Rapino 86.01 Km 735 m 03:10:56 27.03 Km\h Colnago C60
15/11/2015 Show to everybody Mosciano Notaresco Roseto 112.42 Km 841 m 03:57:34 28.39 Km\h Colnago C60
13/11/2015 Show to everybody Elice 83.92 Km 1056 m 02:55:43 28.66 Km\h Colnago C60
12/11/2015 Show to everybody Penne Picciano CS Angelo 94.92 Km 1262 m 03:45:50 25.22 Km\h Colnago C60
10/11/2015 Show to everybody Penne 83.48 Km 870 m 03:16:09 25.53 Km\h Colnago C60
08/11/2015 Show to everybody Guardiagrele BdV 116.39 Km 1189 m 04:17:10 27.15 Km\h Colnago C60
01/11/2015 Show to everybody Giro Bisenti Arsita penne 115.74 Km 1304 m 04:25:50 26.12 Km\h Colnago C60
27/10/2015 Show to everybody Roccamontepiano 92.31 Km 872 m 03:35:21 25.72 Km\h Colnago C60
22/10/2015 Show to everybody Baricelle Penne Piccianello 90.17 Km 1105 m 03:32:15 25.49 Km\h Colnago C60
20/10/2015 Show to everybody Montepagano Cologna Paese Giulianova 80.68 Km 486 m 02:55:26 27.59 Km\h Colnago C60
18/10/2015 Show to everybody Frisa Castelfrentano Lanciano san Vito 116.7 Km 1254 m 04:09:16 28.09 Km\h Colnago C60
17/10/2015 Show to everybody Moscufo Pianella 53.9 Km 732 m 02:09:53 24.9 Km\h Colnago C60
15/10/2015 Show to everybody Cesi Castilenti Montesilvano 95.58 Km 944 m 03:33:10 26.9 Km\h Colnago C60
13/10/2015 Show to everybody Giulianova Cologna Paese Notaresco Atri 93.96 Km 948 m 03:34:54 26.23 Km\h Colnago C60
11/10/2015 Show to everybody Penne Collecorvino 89.19 Km 980 m 03:26:41 25.89 Km\h Colnago C60
08/10/2015 Show to everybody Cesi Cellino Castelnuovo Roseto 102.77 Km 897 m 03:36:29 28.48 Km\h Colnago C60
06/10/2015 Show to everybody Roseto Montepagano Notaresco 87.01 Km 635 m 02:55:11 29.8 Km\h Colnago C60
03/10/2015 Show to everybody Orsogna 89.54 Km 623 m 03:24:30 26.27 Km\h Colnago C60
01/10/2015 Show to everybody Pineto Mutignano silvi alta lagoverde (pioggia) 79.25 Km 982 m 03:06:48 25.45 Km\h Colnago C60
29/09/2015 Show to everybody Atri Notaresco Montepagano 92.4 Km 1058 m 03:28:22 26.61 Km\h Colnago C60
22/09/2015 Show to everybody Giulianova Cologna Paese Montepagano montesilvano colle 87.99 Km 728 m 03:03:48 28.72 Km\h Colnago C60
20/09/2015 Show to everybody Penne Picciano cs Angelo Silvi alta 112.46 Km 1650 m 04:32:17 24.78 Km\h Colnago C60
17/09/2015 Show to everybody Roccamontepiano Pretoro Rapino (Caldo feroce a 40°!!!) 92.94 Km 1190 m 03:27:51 26.83 Km\h Colnago C60
15/09/2015 Show to everybody Pomaro Roccamontepiano brecciarola 91.38 Km 1032 m 03:24:20 26.83 Km\h Colnago C60
12/09/2015 Show to everybody Pilone Villa Vomano Atri 122.85 Km 1661 m 04:48:28 25.55 Km\h Colnago C60
10/09/2015 Show to everybody Filetto Guardiagrele Chieti 112.77 Km 1448 m 04:10:28 27.01 Km\h Colnago C60
08/09/2015 Show to everybody Atri Notaresco Montepagano 89.99 Km 1074 m 03:24:55 26.35 Km\h Colnago C60
06/09/2015 Show to everybody Chieti Rosciano Catignano 111.51 Km 1294 m 04:18:57 25.84 Km\h Colnago C60
04/09/2015 Show to everybody Pianella Chieti 92.84 Km 809 m 03:43:13 24.95 Km\h Colnago C60
01/09/2015 Show to everybody Penne Picciano CS Angelo 90.94 Km 1256 m 03:37:12 25.12 Km\h Colnago C60
30/08/2015 Show to everybody Bisenti Penne 110.22 Km 1169 m 04:16:08 25.82 Km\h Colnago C60
28/08/2015 Show to everybody Giulianova notaresco Atri 92.06 Km 1318 m 03:27:29 26.62 Km\h Colnago C60
25/08/2015 Show to everybody Atri Pineto Silvi alta 60.92 Km 909 m 02:30:49 24.24 Km\h Colnago C60
23/08/2015 Show to everybody Atri Penne Collecorvino 103.71 Km 1500 m 04:10:07 24.88 Km\h Colnago C60
22/08/2015 Show to everybody Farindola 120.24 Km 1560 m 05:02:38 23.84 Km\h Colnago C60
20/08/2015 Show to everybody Colle marmo Atri 115.04 Km 1741 m 04:23:14 26.22 Km\h Colnago C60
13/08/2015 Show to everybody Roccamontepiano Chieti 108.86 Km 1375 m 04:08:33 26.28 Km\h Colnago C60
11/08/2015 Show to everybody Atri Notaresco Atri 93.28 Km 1392 m 03:47:30 24.6 Km\h Colnago C60
09/08/2015 Show to everybody Penne Mirabello Catignano 107.43 Km 1529 m 04:12:19 25.55 Km\h Colnago C60
06/08/2015 Show to everybody Penne Atri 103.5 Km 1429 m 04:06:44 25.17 Km\h Colnago C60
04/08/2015 Show to everybody Roccamontepiano Rapino Chieti 100.96 Km 1393 m 03:53:36 25.93 Km\h Colnago C60
02/08/2015 Show to everybody Pianella Chieti 94.78 Km 788 m 03:42:16 25.58 Km\h Colnago C60
30/07/2015 Show to everybody Penne 84.41 Km 1142 m 03:14:31 26.04 Km\h Colnago C60
28/07/2015 Show to everybody Roseto Atri 74.13 Km 986 m 02:49:51 26.19 Km\h Colnago C60
26/07/2015 Show to everybody Filetto Castel frentano San Vito 122.92 Km 1451 m 04:39:45 26.36 Km\h Colnago C60
23/07/2015 Show to everybody Roccamontepiano Pretoro Colle spaccato 89.12 Km 1176 m 03:32:34 25.16 Km\h Colnago C60
21/07/2015 Show to everybody Giulianova 80.57 Km 905 m 02:48:17 28.73 Km\h Colnago C60
19/07/2015 Show to everybody Giro di Arsita 108.89 Km 1442 m 04:11:50 25.94 Km\h Colnago C60
17/07/2015 Show to everybody Notaresco Atri 83.63 Km 1197 m 03:10:16 26.37 Km\h Colnago C60
16/07/2015 Show to everybody Lanciano Guardiagrele 120.76 Km 1091 m 04:23:01 27.55 Km\h Colnago C60
12/07/2015 Show to everybody Colle Marmo Atri 120 Km 1737 m 04:46:34 25.13 Km\h Colnago C60
07/07/2015 Show to everybody Roccamontepiano - Serramonacesca (caldo devastante) 78.41 Km 1032 m 02:56:21 26.68 Km\h Colnago C60
05/07/2015 Show to everybody Rigopiano 112.96 Km 1570 m 04:36:49 24.48 Km\h Colnago C60
02/07/2015 Show to everybody Pretoro Guardiagrele Orsogna 101.91 Km 1271 m 03:46:13 27.03 Km\h Colnago C60
30/06/2015 Show to everybody Giro del bocconotto 101.42 Km 1129 m 03:37:16 28.01 Km\h Colnago C60
28/06/2015 Show to everybody Giro del Pilone 116.36 Km 1201 m 04:14:11 27.47 Km\h Colnago C60
26/06/2015 Show to everybody Atri roseto 84.52 Km 555 m 03:07:29 27.05 Km\h Colnago C60
23/06/2015 Show to everybody scarico 70.73 Km 533 m 02:39:20 26.64 Km\h Colnago C60
22/06/2015 Show to everybody Lanciano Castelfrentano 100.22 Km 1330 m 03:39:39 27.38 Km\h Colnago C60
20/06/2015 Show to everybody Atri 2 81.63 Km 806 m 02:59:43 27.25 Km\h Colnago C60
19/06/2015 Show to everybody ATRI 1 78.65 Km 839 m 02:50:53 27.62 Km\h Colnago C60
18/06/2015 Show to everybody collinare 88.93 Km 838 m 03:28:55 25.54 Km\h Colnago C60
16/06/2015 Show to everybody Roccamontepiano 78.62 Km 944 m 02:53:02 27.26 Km\h Colnago C60
14/06/2015 Show to everybody Roccamontepiano Guardiagrele 127.58 Km 1374 m 04:49:08 26.48 Km\h Colnago C60
11/06/2015 Show to everybody Atri Notaresco Roseto 89.69 Km 1083 m 03:22:55 26.52 Km\h Colnago C60
09/06/2015 Show to everybody Atri Pagliare 69.69 Km 530 m 02:29:03 28.05 Km\h Colnago C60
04/06/2015 Show to everybody Penne 80.41 Km 968 m 03:03:22 26.31 Km\h Colnago C60
24/05/2015 Show to everybody 9 colli corto 131.27 Km 2059 m 04:48:04 27.34 Km\h Colnago C60
21/05/2015 Show to everybody scarico2 62.72 Km 630 m 02:21:33 26.58 Km\h Colnago C60
19/05/2015 Show to everybody scarico 1 81.59 Km 728 m 03:04:10 26.58 Km\h Colnago C60
17/05/2015 Show to everybody Giro di Teramo 134.26 Km 603 m 04:15:58 31.47 Km\h Colnago C60
14/05/2015 Show to everybody Bisenti Cermignano Atri Cappelle 112.83 Km 1852 m 04:25:28 25.5 Km\h Colnago C60
12/05/2015 Show to everybody Penne mirabello chieti colli Montesilvano 161.62 Km 1832 m 06:12:49 26.01 Km\h Colnago C60
09/05/2015 Show to everybody Atri giulianova silvi alta 108.75 Km 1469 m 04:04:24 26.7 Km\h Colnago C60
07/05/2015 Show to everybody Penne Mirabello San Martino 114.61 Km 1767 m 04:19:19 26.52 Km\h Colnago C60
05/05/2015 Show to everybody Scarico post GF 97.46 Km 1010 m 03:22:44 28.85 Km\h Colnago C60
03/05/2015 Show to everybody GF San Benedetto 153.6 Km 2237 m 05:02:33 30.46 Km\h Colnago C60
30/04/2015 Show to everybody Colline teramane 162.8 Km 1472 m 05:56:34 27.4 Km\h Colnago C60
28/04/2015 Show to everybody Roccamontepiano Cava Rapino Colle spaccato 108.67 Km 1410 m 04:04:21 26.68 Km\h Colnago C60
25/04/2015 Show to everybody gf Tollo 88.34 Km 1576 m 02:52:55 30.65 Km\h Colnago C60
23/04/2015 Show to everybody scarico Orsogna 84.57 Km 839 m 03:05:58 27.29 Km\h Colnago C60
21/04/2015 Show to everybody Giro di masciarelli 124.38 Km 1013 m 04:08:28 30.04 Km\h Colnago C60
19/04/2015 Show to everybody Roccamp Casalincontrada Chieti Cappelle 136.71 Km 1942 m 05:12:41 26.23 Km\h Colnago C60
16/04/2015 Show to everybody Penne Pianella Chieti 107.5 Km 1157 m 03:59:15 26.96 Km\h Colnago C60
14/04/2015 Show to everybody Roccamontepiano BdV Guardiagrele Orsogna Tollo 105.26 Km 988 m 04:02:30 26.04 Km\h Colnago C60
12/04/2015 Show to everybody Atri Guardia Vomano Teramo Penna S. Andrea Roseto 153.19 Km 1631 m 05:41:55 26.88 Km\h Colnago C60
08/04/2015 Show to everybody Atri Castellalto Teramo Silvi Alta Cappelle 148.84 Km 1825 m 05:39:50 26.28 Km\h Colnago C60
04/04/2015 Show to everybody San Gabriele 143.12 Km 939 m 04:25:30 32.34 Km\h Colnago C60
02/04/2015 Show to everybody Roccamontepiano Casalincontrada 105.11 Km 1197 m 03:55:59 26.72 Km\h Colnago C60
31/03/2015 Show to everybody Atri G. Vomano roseto 95.19 Km 913 m 03:34:17 26.65 Km\h Colnago C60
28/03/2015 Show to everybody Pianella Penne 99.11 Km 1340 m 03:44:27 26.49 Km\h Colnago C60
26/03/2015 Show to everybody Penne A/R 92.25 Km 1159 m 03:27:46 26.64 Km\h Colnago C60
24/03/2015 Show to everybody Bocca di valle- Bucchianico -Chieti 110.72 Km 1543 m 04:08:46 26.7 Km\h Colnago C60
19/03/2015 Show to everybody giro di Masciarelli + Cappelle e C.S. Angelo 162.82 Km 1731 m 05:37:02 28.99 Km\h Colnago C60
17/03/2015 Show to everybody Notaresco Montepagano 84.25 Km 751 m 02:56:35 28.63 Km\h Colnago C60
15/03/2015 Show to everybody guardiagrele 111.25 Km 831 m 03:44:33 29.73 Km\h Colnago C60
13/03/2015 Show to everybody Atri Notaresco bellante giulianova 102.72 Km 1004 m 04:01:17 25.54 Km\h Colnago C60
10/03/2015 Show to everybody Paglieta 107.59 Km 1049 m 03:42:12 29.05 Km\h Colnago C60
08/03/2015 Show to everybody Mosciano Notaresco Roseto 117.19 Km 1255 m 03:49:55 30.58 Km\h Colnago C60
03/03/2015 Show to everybody Ripa Teatina Roccamontepiano Fara 100.19 Km 889 m 03:38:37 27.5 Km\h Colnago C60
26/02/2015 Show to everybody CS Angelo Loreto Moscufo 87.62 Km 1490 m 03:59:35 21.94 Km\h Colnago C60
24/02/2015 Show to everybody CS Angelo 55.08 Km 889 m 02:23:13 23.08 Km\h Colnago C60
23/02/2015 Show to everybody Atri Notaresco Cappelle 101.84 Km 1375 m 04:03:36 25.08 Km\h Colnago C60
21/02/2015 Show to everybody Atri G. Vomano Notaresco Atri 103.1 Km 1594 m 04:17:36 24.01 Km\h Colnago C60
20/02/2015 Show to everybody CS Angelo Penne 91.25 Km 1614 m 03:45:31 24.28 Km\h Colnago C60
19/02/2015 Show to everybody Castelfrentano Orsogna CS Angelo 146.34 Km 1693 m 05:16:53 27.71 Km\h Colnago C60
17/02/2015 Show to everybody Moscufo Pianella Chieti CS Angelo 111.47 Km 1435 m 04:23:35 25.37 Km\h Colnago C60
16/02/2015 Show to everybody Lavori in salita 52.76 Km 908 m 02:25:51 21.7 Km\h Colnago C60
15/02/2015 Show to everybody Giro del Pilone 118.51 Km 1672 m 04:39:30 25.44 Km\h Colnago C60
13/02/2015 Show to everybody Rosciano 76.73 Km 1201 m 03:04:56 24.89 Km\h Colnago C60
12/02/2015 Show to everybody Penne Chieti C.S. Angelo 139.87 Km 1841 m 05:26:04 25.74 Km\h Colnago C60
11/02/2015 Show to everybody città s. Angelo 57.08 Km 865 m 02:19:47 24.5 Km\h Colnago C60
10/02/2015 Show to everybody Paglieta 108.33 Km 1215 m 03:57:15 27.4 Km\h Colnago C60
09/02/2015 Show to everybody Loreto Pianella 90.4 Km 1164 m 03:16:32 27.6 Km\h Colnago C60
08/02/2015 Show to everybody Orsogna C.S. Angelo 118.5 Km 1349 m 04:27:45 26.55 Km\h Colnago C60
07/02/2015 Show to everybody città S. Angelo 42.08 Km 747 m 01:43:00 24.51 Km\h Colnago C60
06/02/2015 Show to everybody 3 ciminiere 58.92 Km 849 m 02:12:34 26.67 Km\h Colnago C60
05/02/2015 Show to everybody Roseto Atri Cellino Penne Loreto 108.1 Km 1212 m 04:12:25 25.7 Km\h Colnago C60
04/02/2015 Show to everybody Citta s. Angelo 63.33 Km 610 m 02:21:17 26.89 Km\h Colnago C60
03/02/2015 Show to everybody Orsogna Guardiagrele Ripa Teatina 105.61 Km 1200 m 03:51:52 27.33 Km\h Colnago C60
01/02/2015 Show to everybody Mosciano 108.25 Km 829 m 03:44:48 28.89 Km\h Colnago C60
29/01/2015 Show to everybody penne picciano cs angelo 92.33 Km 1141 m 03:42:50 24.86 Km\h Colnago C60
27/01/2015 Show to everybody Paglieta 111 Km 1332 m 04:17:32 25.86 Km\h Colnago C60
21/01/2015 Show to everybody Penne Mirabello Tarallo Chieti 120.35 Km 1440 m 04:32:57 26.46 Km\h Colnago C60
19/01/2015 Show to everybody Penne Pianella 94.04 Km 1079 m 03:32:42 26.53 Km\h Colnago C60
15/01/2015 Show to everybody Penne Mirabello Cavaticchi 97.91 Km 1352 m 03:52:48 25.24 Km\h Colnago C60
11/01/2015 Show to everybody Serra 96.66 Km 1301 m 03:50:05 25.21 Km\h Colnago C60
10/01/2015 Show to everybody Casalbordino 125.56 Km 1096 m 04:34:42 27.42 Km\h Colnago C60
08/01/2015 Show to everybody Giuliano teatino Guardiagrele 93.5 Km 877 m 03:23:17 27.6 Km\h Colnago C60
06/01/2015 Show to everybody Orsogna 99.12 Km 774 m 03:39:54 27.05 Km\h Colnago C60
04/01/2015 Show to everybody Mosciano 95.97 Km 507 m 03:12:49 29.86 Km\h Colnago C60
21/12/2014 Show to everybody Mosciano 110.94 Km 463 m 03:48:57 29.07 Km\h Colnago C60
18/12/2014 Show to everybody Lanciano Guardiagrele 115.24 Km 1153 m 04:03:06 28.44 Km\h Colnago C60
16/12/2014 Show to everybody san Vincenzo Fara B.d. Valle 102.39 Km 1016 m 03:43:23 27.5 Km\h Colnago C60
14/12/2014 Show to everybody Giulianova Mosciano Notaresco 117.87 Km 914 m 04:06:57 28.64 Km\h Colnago C60
11/12/2014 Show to everybody giro di Paglieta 113.37 Km 976 m 03:58:36 28.51 Km\h Colnago C60
10/12/2014 Show to everybody Cepagatti 66.06 Km 755 m 02:26:18 27.09 Km\h Colnago C60
09/12/2014 Show to everybody Sorripe 48.06 Km 828 m 01:59:25 24.15 Km\h Colnago C60
08/12/2014 Show to everybody Guardiagrele 99.43 Km 924 m 03:31:18 28.23 Km\h Colnago C60
06/12/2014 Show to everybody Orsogna Castelfrentano 114.32 Km 1197 m 04:05:34 27.93 Km\h Colnago C60
04/12/2014 Show to everybody Fossacesia 84.79 Km 904 m 03:06:15 27.32 Km\h Colnago C60
03/12/2014 Show to everybody Città S. Angelo 57.22 Km 807 m 02:13:04 25.8 Km\h Colnago C60
02/12/2014 Show to everybody Penne Picciano 91.87 Km 860 m 03:22:51 27.18 Km\h Colnago C60
27/11/2014 Show to everybody Fossacesia Lanciano Castelfrentano Orsogna 111.74 Km 1186 m 03:59:10 28.03 Km\h Colnago C60
25/11/2014 Show to everybody Castelfrentano (bocconotto) 110.41 Km 1184 m 03:51:16 28.64 Km\h Colnago C60
23/11/2014 Show to everybody Giro di Teramo 127.84 Km 566 m 04:17:26 29.8 Km\h Colnago C60
20/11/2014 Show to everybody Notaresco cologna 88.46 Km 998 m 03:22:58 26.15 Km\h Colnago C60
18/11/2014 Show to everybody Paglieta station 107.29 Km 827 m 03:36:24 29.75 Km\h Colnago C60
16/11/2014 Show to everybody Casalbordino 126.25 Km 681 m 04:25:59 28.48 Km\h Colnago C60
13/11/2014 Show to everybody Paglieta A/R 111.34 Km 929 m 03:47:43 29.34 Km\h Colnago C60
11/11/2014 Show to everybody Bocca di Valle 103.81 Km 835 m 03:34:36 29.02 Km\h Colnago C60
10/11/2014 Show to everybody Giretto 47.27 Km 765 m 01:44:39 27.1 Km\h Colnago C60
09/11/2014 Show to everybody Pilone 115.47 Km 937 m 04:08:59 27.83 Km\h Colnago C60
06/11/2014 Show to everybody Orsogna 97.13 Km 594 m 03:34:01 27.23 Km\h Colnago C60
04/11/2014 Show to everybody Penne Cepagatti 83 Km 821 m 03:04:45 26.95 Km\h Colnago C60
02/11/2014 Show to everybody Guardiagrele Castelfrentano 131.56 Km 1169 m 04:57:09 26.56 Km\h Colnago C60
30/10/2014 Show to everybody 3 ciminiere Cologna 91.72 Km 817 m 03:19:23 27.6 Km\h Colnago C60
28/10/2014 Show to everybody Moscufo 58.26 Km 792 m 01:58:16 29.55 Km\h Colnago C60
26/10/2014 Show to everybody villa san romualdo 110.74 Km 1014 m 04:05:56 27.02 Km\h Colnago C60
21/10/2014 Show to everybody Montepagano 75.61 Km 327 m 02:32:52 29.68 Km\h Colnago C60
19/10/2014 Show to everybody Roccamontepiano Rosciano catignano 126.18 Km 1243 m 04:44:30 26.61 Km\h Colnago C60
16/10/2014 Show to everybody fossacesia lanciano guardiagrele 125.22 Km 1049 m 04:15:43 29.38 Km\h Colnago C60
14/10/2014 Show to everybody cologna atri 90.71 Km 765 m 03:13:21 28.15 Km\h Colnago C60
12/10/2014 Show to everybody Paglieta 120.5 Km 858 m 04:17:11 28.11 Km\h Colnago C60
10/10/2014 Show to everybody Atri 2 68.61 Km 654 m 02:41:53 25.43 Km\h Colnago C60
09/10/2014 Show to everybody filetto melone castelfrentano s. Apollinare 111.87 Km 1316 m 04:09:31 26.9 Km\h Colnago C60
07/10/2014 Show to everybody Paglieta 2 89.42 Km 705 m 03:04:29 29.08 Km\h Colnago C60
05/10/2014 Show to everybody Villa Zaccheo 115.01 Km 1160 m 04:22:44 26.26 Km\h Colnago C60
30/09/2014 Show to everybody Giulianova Grasciano Notareco Roseto 90.51 Km 718 m 03:15:09 27.83 Km\h Colnago C60
28/09/2014 Show to everybody castelfrentano fossacesia 120.23 Km 1055 m 04:26:59 27.02 Km\h Colnago C60
23/09/2014 Show to everybody Silvi Forchetta Atri Notaresco M.Pagano 85.05 Km 844 m 03:09:26 26.94 Km\h Colnago C60
22/09/2014 Show to everybody San Vittorito Cipressi 55.31 Km 778 m 02:03:10 26.95 Km\h Colnago C60
20/09/2014 Show to everybody Catignano1 75.39 Km 1029 m 02:40:40 28.15 Km\h Colnago C60
18/09/2014 Show to everybody Penne Picciano Villla Cipressi 93.2 Km 1085 m 03:35:48 25.91 Km\h Colnago C60
16/09/2014 Show to everybody Atri Notaresco Cologna 2 84.32 Km 825 m 03:00:41 28 Km\h Colnago C60
14/09/2014 Show to everybody Fossacesia 3 106.81 Km 632 m 03:48:28 28.05 Km\h Colnago C60
12/09/2014 Show to everybody Atri e altre colline 86.9 Km 838 m 03:06:07 28.01 Km\h Colnago C60
09/09/2014 Show to everybody Cologna Paese - G.Vomano - Atri 96.52 Km 876 m 03:27:47 27.87 Km\h Colnago C60
07/09/2014 Show to everybody Roccamontepiano Guardiagrele 123.24 Km 1030 m 04:32:37 27.12 Km\h Colnago C60
05/09/2014 Show to everybody Santa Maria Propezzano 76.41 Km 657 m 02:55:24 26.14 Km\h Colnago C60
03/09/2014 Show to everybody C.S. Angelo e dintorni 72.5 Km 865 m 02:37:37 27.6 Km\h Colnago C60
01/09/2014 Show to everybody giro di Penne 101.74 Km 1518 m 04:05:08 24.9 Km\h Colnago C60
31/08/2014 Show to everybody San Gabriele 143.38 Km 642 m 04:42:21 30.47 Km\h Colnago C60
28/08/2014 Show to everybody uardiagrele Castelfrentano 120.93 Km 1107 m 04:32:23 26.64 Km\h Colnago C60
26/08/2014 Show to everybody lanciano Melone Orsogna 109.49 Km 876 m 03:55:21 27.91 Km\h Colnago C60
24/08/2014 Show to everybody Pilone Atri 106.08 Km 1312 m 04:07:32 25.71 Km\h Colnago C60
19/08/2014 Show to everybody Pretoro Passolanciano 115.29 Km 1382 m 04:39:31 24.75 Km\h Colnago C60
17/08/2014 Show to everybody Around Cellino 105.09 Km 868 m 03:49:49 27.44 Km\h Colnago C60
14/08/2014 Show to everybody Penne 96.7 Km 812 m 03:29:18 27.72 Km\h Colnago C60
12/08/2014 Show to everybody Giulianova Atri 96.6 Km 800 m 03:37:54 26.6 Km\h Colnago C60
07/08/2014 Show to everybody Atri pianura Vomano 73.81 Km 544 m 02:41:02 27.5 Km\h Colnago C60
05/08/2014 Show to everybody Villa s. Romualdo 80.65 Km 888 m 02:25:20 33.3 Km\h Colnago C60
04/08/2014 Show to everybody Cellino A. 94.37 Km 1381 m 03:41:16 25.59 Km\h Colnago C60
03/08/2014 Show to everybody Casalbordino 117.91 Km 697 m 04:02:16 29.2 Km\h Colnago C60
29/07/2014 Show to everybody Atri 2 50.66 Km 540 m 01:57:52 25.79 Km\h Colnago C60
28/07/2014 Show to everybody Penne Campotino 67.01 Km 687 m 02:31:37 26.52 Km\h Colnago C60
27/07/2014 Show to everybody Atri 50.68 Km 545 m 01:56:23 26.13 Km\h Colnago C60
25/07/2014 Show to everybody scarico Chieti 54.27 Km 273 m 02:01:50 26.73 Km\h Colnago C60
24/07/2014 Show to everybody Cologna Notaresco Atri 88.41 Km 742 m 03:11:07 27.76 Km\h Colnago C60
22/07/2014 Show to everybody 3 ciminiere Roseto 71.68 Km 525 m 02:43:02 26.38 Km\h Colnago C60
20/07/2014 Show to everybody Bisenti Arsita 108.57 Km 1139 m 04:13:23 25.71 Km\h Colnago C60
17/07/2014 Show to everybody Bocca di Valle Orsogna 109.32 Km 976 m 04:13:29 25.88 Km\h Colnago C60
15/07/2014 Show to everybody Atri fontanelle 71.18 Km 520 m 02:37:08 27.18 Km\h Colnago C60
10/07/2014 Show to everybody Bucchianico 74.45 Km 760 m 02:48:58 26.44 Km\h Colnago C60
08/07/2014 Show to everybody Giro con Cataldo -Rabottini - Taborre 97.25 Km 647 m 03:20:16 29.14 Km\h Colnago C60
06/07/2014 Show to everybody Bisenti 100.29 Km 900 m 03:45:28 26.69 Km\h Colnago C60
03/07/2014 Show to everybody Filetto Lanciano Ortona 101.97 Km 967 m 03:52:36 26.3 Km\h Colnago C60
01/07/2014 Show to everybody Atri Montepagano Roseto 1 84.83 Km 815 m 03:15:26 26.04 Km\h Colnago C60
29/06/2014 Show to everybody Passolanciano2 109.58 Km 1314 m 04:21:38 25.13 Km\h Colnago C60
27/06/2014 Show to everybody Roseto 57.12 Km 149 m 02:00:43 28.39 Km\h Colnago C60
26/06/2014 Show to everybody Pretoro Guardiagrele 104.67 Km 1030 m 03:53:37 26.88 Km\h Colnago C60
24/06/2014 Show to everybody Guardia V. Cologna 91 Km 930 m 03:24:44 26.67 Km\h Colnago C60
22/06/2014 Show to everybody Passolanciano1 112.95 Km 1291 m 04:27:50 25.3 Km\h Colnago C60
20/06/2014 Show to everybody Picciano 56.03 Km 535 m 02:06:01 26.68 Km\h Colnago C60
19/06/2014 Show to everybody Rapino Chieti 100.24 Km 932 m 03:46:27 26.56 Km\h Colnago C60
17/06/2014 Show to everybody Fossacesia 105.5 Km 643 m 03:40:36 28.69 Km\h Colnago C60
15/06/2014 Show to everybody Guardia Vomano Cologna 99.2 Km 899 m 03:46:51 26.24 Km\h Colnago C60
12/06/2014 Show to everybody Atri Guardia Vomano Notaresco 93.98 Km 1243 m 03:49:54 24.53 Km\h Colnago C60
10/06/2014 Show to everybody pianella 79.56 Km 931 m 03:14:28 24.55 Km\h Colnago C60
09/06/2014 Show to everybody Bocca di Valle 2 110.22 Km 933 m 04:16:04 25.83 Km\h Colnago C60
07/06/2014 Show to everybody Passolanciano 109.45 Km 1337 m 04:16:06 25.64 Km\h Colnago C60
05/06/2014 Show to everybody Penne Vestea Chieti 110.79 Km 1417 m 04:17:09 25.85 Km\h Colnago C60
01/06/2014 Show to everybody Colline di Atri 89.3 Km 1193 m 03:43:36 23.96 Km\h Colnago C60
27/05/2014 Show to everybody Francavilla (ruota rotta) 40.9 Km 129 m 01:33:57 26.12 Km\h Colnago C60
25/05/2014 Show to everybody Penne Catignano 119.74 Km 1334 m 04:29:32 26.65 Km\h Colnago C60
22/05/2014 Show to everybody Penne Chieti 95.4 Km 1037 m 03:41:52 25.8 Km\h Colnago C60
20/05/2014 Show to everybody Sgambata post 9 Colli 45.16 Km 519 m 01:45:03 25.79 Km\h Colnago C60
18/05/2014 Show to everybody 9 colli 2014 203.63 Km 3775 m 07:33:51 26.92 Km\h Colnago C60
15/05/2014 Show to everybody scarico2 69.56 Km 441 m 02:26:13 28.55 Km\h Colnago C60
13/05/2014 Show to everybody scarico pre 9 colli 48.66 Km 380 m 01:54:22 25.53 Km\h Colnago C60
11/05/2014 Show to everybody Fossacesia Lanciano 135.93 Km 854 m 04:43:51 28.73 Km\h Colnago C60
10/05/2014 Show to everybody Villa cipressi scarico 46.15 Km 524 m 01:52:13 24.67 Km\h Colnago C60
08/05/2014 Show to everybody Bocca di valle 106.25 Km 843 m 03:52:19 27.44 Km\h Colnago C60
06/05/2014 Show to everybody Cellino Roseto 107.31 Km 1122 m 04:05:52 26.19 Km\h Colnago C60
01/05/2014 Show to everybody Pilone Penne Cipressi 166.37 Km 2512 m 06:31:59 25.47 Km\h Colnago C60
29/04/2014 Show to everybody Cellino Attanasio 94.37 Km 1382 m 03:41:16 25.59 Km\h Colnago C60
27/04/2014 Show to everybody scarico post gara 102.46 Km 618 m 03:32:56 28.87 Km\h Colnago C60
25/04/2014 Show to everybody gran fondo Tollo 131.42 Km 2336 m 04:52:21 26.97 Km\h Colnago C60
22/04/2014 Show to everybody Tollo 85.47 Km 834 m 03:24:32 25.07 Km\h Colnago C60
21/04/2014 Show to everybody Vasto sud (in solitaria) 173.98 Km 1165 m 05:56:44 29.26 Km\h Colnago C60
18/04/2014 Show to everybody atri giulianova torrevecchia teatina 158.38 Km 1674 m 06:04:35 26.07 Km\h Colnago C60
13/04/2014 Show to everybody Casalbordino 144.55 Km 967 m 04:54:48 29.42 Km\h Colnago C60
12/04/2014 Show to everybody Caprara 39.6 Km 351 m 01:23:34 28.43 Km\h Colnago C60
11/04/2014 Show to everybody test taratura mio cyclo 105 44.12 Km 282 m 01:44:10 25.41 Km\h Colnago C60
10/04/2014 Show to everybody roccamont Catignano 113.18 Km 1272 m 04:27:05 25.43 Km\h Colnago C60
08/04/2014 Show to everybody Bocca di valle (da Rapino) 121.47 Km 1495 m 04:32:18 26.76 Km\h Colnago C60
07/04/2014 Show to everybody scarico 35.21 Km 189 m 01:19:20 26.63 Km\h Colnago C60
06/04/2014 Show to everybody Fossacesia casoli pennapiedimonte 156.54 Km 1869 m 05:39:31 27.66 Km\h Colnago C60
03/04/2014 Show to everybody Penne Catignano 108.39 Km 1441 m 04:14:04 25.6 Km\h Colnago C60
01/04/2014 Show to everybody Pretoro Chieti 124.02 Km 1708 m 04:47:22 25.9 Km\h Colnago C60
30/03/2014 Show to everybody giro di Castelli 147.19 Km 1694 m 05:27:29 26.97 Km\h Colnago C60
25/03/2014 Show to everybody atri cellino notaresco f.villa 120.82 Km 1358 m 04:33:56 26.46 Km\h Colnago C60
23/03/2014 Show to everybody roccafinadamo (vento e pioggia) 123.52 Km 1711 m 04:58:45 24.81 Km\h Colnago C60
22/03/2014 Show to everybody test 40.32 Km 423 m 01:33:00 26.02 Km\h Colnago C60
20/03/2014 Show to everybody Guardiagrele 3 96.95 Km 754 m 03:13:48 30.02 Km\h Colnago C60
19/03/2014 Show to everybody Ortona 50.66 Km 386 m 01:48:21 28.05 Km\h Colnago C60
18/03/2014 Show to everybody Bocca di valle 2 112.66 Km 1307 m 04:08:50 27.17 Km\h Colnago C60
16/03/2014 Show to everybody Palombaro Pennapiedimonte 132.6 Km 1760 m 05:06:37 25.95 Km\h Colnago C60
14/03/2014 Show to everybody Roseto 64.46 Km 320 m 02:08:26 30.11 Km\h Colnago C60
13/03/2014 Show to everybody Bocca di valle 118.39 Km 1492 m 04:13:39 28.01 Km\h Colnago C60
09/03/2014 Show to everybody Giro del Pilone 132.05 Km 1768 m 04:57:48 26.6 Km\h Colnago C60
03/03/2014 Show to everybody Roseto Fontanelle Atri 69.62 Km 764 m 02:31:10 27.63 Km\h Colnago C60
02/03/2014 Show to everybody Rapino 91.63 Km 899 m 03:20:18 27.45 Km\h Colnago C60
27/02/2014 Show to everybody Atri - Villa Bozza - Penne 101.74 Km 1518 m 04:05:08 24.9 Km\h Colnago C60
25/02/2014 Show to everybody Penne Chieti Cappelle 115.93 Km 1734 m 04:30:40 25.7 Km\h Colnago C60
24/02/2014 Show to everybody Villa S. Romualdo 77.95 Km 1541 m 03:15:20 23.95 Km\h Colnago C60
22/02/2014 Show to everybody Atri Notaresco Atri 101.95 Km 1536 m 03:57:18 25.78 Km\h Colnago C60
20/02/2014 Show to everybody Penne Pianella S. Teresa 101.4 Km 1407 m 03:54:24 25.96 Km\h Colnago C60
19/02/2014 Show to everybody Colline Città S. Angelo 2 50.71 Km 914 m 02:02:28 24.84 Km\h Colnago C60
18/02/2014 Show to everybody Colline di Città S. Angelo 49.18 Km 682 m 01:47:48 27.37 Km\h Colnago C60
17/02/2014 Show to everybody Lavori in salita 66.82 Km 1304 m 02:33:23 26.14 Km\h Colnago C60
16/02/2014 Show to everybody forca di penne 149.88 Km 2234 m 05:44:24 26.11 Km\h Colnago C60
13/02/2014 Show to everybody Giro di Castelfrentano 121.59 Km 1471 m 04:11:37 28.99 Km\h Colnago C60
11/02/2014 Show to everybody Picciano Penne Cepagatti 95.04 Km 1273 m 03:33:14 26.74 Km\h Colnago C60
09/02/2014 Show to everybody Lanciano Orsogna Guardiagrele Casalincontrada 132.31 Km 1794 m 04:50:08 27.36 Km\h Colnago C60
07/02/2014 Show to everybody Roseto Casoli Atri 65.9 Km 723 m 02:19:14 28.4 Km\h Colnago C60
06/02/2014 Show to everybody Penna S.Andrea - Atri 111.17 Km 1589 m 04:10:00 26.68 Km\h Colnago C60
30/01/2014 Show to everybody Roccamontepiano 94.79 Km 841 m 03:23:45 27.91 Km\h Colnago C60
26/01/2014 Show to everybody GiulianoT. guardiagrele 128.92 Km 974 m 04:25:43 29.11 Km\h Colnago C60
23/01/2014 Show to everybody Bisenti Villa Vomano Penna S. Andrea Cellino Roseto 129.85 Km 1495 m 04:58:36 26.09 Km\h Colnago C60
19/01/2014 Show to everybody Lanciano 135.9 Km 1474 m 04:55:14 27.62 Km\h Colnago C60
16/01/2014 Show to everybody Roccamontepiano Nocciano 104.72 Km 1199 m 03:44:49 27.95 Km\h Colnago C60
12/01/2014 Show to everybody ortona paglieta 110.11 Km 1051 m 03:45:41 29.27 Km\h Colnago C60
09/01/2014 Show to everybody Orsogna Filetto Giuliano T. 91.85 Km 846 m 03:21:59 27.29 Km\h Colnago C60
06/01/2014 Show to everybody Roseto (pioggia forte) 58.27 Km 349 m 02:13:11 26.25 Km\h Colnago C60
02/01/2014 Show to everybody orsogna 118.5 Km 845 m 04:10:39 28.37 Km\h Colnago C60
01/01/2014 Show to everybody Chieti Cepagatti Pianella 88.18 Km 797 m 03:16:22 26.94 Km\h Colnago C60
29/12/2013 Show to everybody Cologna 99.47 Km 596 m 03:33:07 28.01 Km\h Colnago C60
28/12/2013 Show to everybody Paglieta 110.11 Km 1052 m 03:45:42 29.27 Km\h Colnago C60
24/12/2013 Show to everybody Villa bozza Atri 97.53 Km 1145 m 03:40:05 26.59 Km\h Colnago C60
22/12/2013 Show to everybody passeggiata a Guardiagrele 110.6 Km 1187 m 04:15:09 26.01 Km\h Colnago C60
19/12/2013 Show to everybody Orsogna Filetto 92.95 Km 802 m 03:22:32 27.54 Km\h Colnago C60
17/12/2013 Show to everybody fossacesia 95.24 Km 879 m 03:25:07 27.86 Km\h Colnago C60
15/12/2013 Show to everybody Vasto 124.2 Km 1043 m 04:09:32 29.86 Km\h Colnago C60
12/12/2013 Show to everybody Orsogna Filetto 89.74 Km 781 m 03:18:53 27.07 Km\h Colnago C60
08/12/2013 Show to everybody San vito Pineto 113.83 Km 771 m 04:02:00 28.22 Km\h Colnago C60
05/12/2013 Show to everybody villa bozza atri 88.47 Km 1030 m 03:25:17 25.86 Km\h Colnago C60
03/12/2013 Show to everybody 3 ciminiere atri notaresco roseto 92.95 Km 942 m 03:27:07 26.93 Km\h Colnago C60
30/11/2013 Show to everybody notaresco giulianova 101.33 Km 739 m 03:32:02 28.67 Km\h Colnago C60
28/11/2013 Show to everybody san vito chietino 71.11 Km 692 m 02:39:29 26.75 Km\h Colnago C60
24/11/2013 Show to everybody atri notaresco (temporale) 84.55 Km 835 m 03:14:24 26.09 Km\h Colnago C60
21/11/2013 Show to everybody atri notaresco roseto pineto 91.16 Km 1081 m 03:26:07 26.54 Km\h Colnago C60
19/11/2013 Show to everybody Atri da 3 ciminiere 67.29 Km 708 m 02:26:33 27.55 Km\h Colnago C60
17/11/2013 Show to everybody Fossacesia (scarico) 92.69 Km 779 m 03:23:12 27.37 Km\h Colnago C60
10/11/2013 Show to everybody villa vomano p.s. andrea atri 106.27 Km 1189 m 03:50:20 27.68 Km\h Colnago C60
03/11/2013 Show to everybody Fossacesia 112.01 Km 1010 m 03:37:45 30.86 Km\h Colnago C60
01/11/2013 Show to everybody Atri fontanelle castelnuovo vomano 117.51 Km 1062 m 04:01:46 29.16 Km\h Colnago C60
29/10/2013 Show to everybody Cologna Notaresco Atri 91.9 Km 850 m 03:09:19 29.13 Km\h Colnago C60
27/10/2013 Show to everybody Filetto Orsogna Ortona 97.79 Km 919 m 03:29:08 28.06 Km\h Colnago C60
24/10/2013 Show to everybody Penne Chieti Francavilla 96.66 Km 1236 m 03:32:39 27.27 Km\h Colnago C60
22/10/2013 Show to everybody roseto fontanelle atri casoli 83.24 Km 542 m 02:46:53 29.93 Km\h Colnago C60
20/10/2013 Show to everybody Orsogna Ortona Montesilvano 118.5 Km 843 m 04:10:39 28.37 Km\h Colnago C60
20/10/2013 Show to everybody Orsogna 88.18 Km 797 m 03:16:22 26.94 Km\h Colnago C60
19/10/2013 Show to everybody allenamento pianura 42.15 Km 319 m 01:23:08 30.42 Km\h Colnago C60
17/10/2013 Show to everybody Giuliano Teatino Orsogna Ortona 100.01 Km 846 m 03:32:26 28.25 Km\h Colnago C60
15/10/2013 Show to everybody Casalincontrada Francavilla 80.31 Km 648 m 02:49:44 28.39 Km\h Colnago C60
13/10/2013 Show to everybody Penne Chieti San Silvestro 102.02 Km 1207 m 03:45:55 27.09 Km\h Colnago C60
12/10/2013 Show to everybody Atri Cellino 98.09 Km 1235 m 03:38:27 26.94 Km\h Colnago C60
10/10/2013 Show to everybody Fossacesia casoli guardiagrele 127.67 Km 1068 m 04:05:08 31.25 Km\h Colnago C60
08/10/2013 Show to everybody atri notaresco roseto 87.12 Km 952 m 03:02:50 28.59 Km\h Colnago C60
06/10/2013 Show to everybody giro di Fara Filiorum 81.02 Km 651 m 02:42:42 29.88 Km\h Colnago C60
01/10/2013 Show to everybody 3 ciminiere atri roseto 74.77 Km 572 m 02:28:43 30.17 Km\h Colnago C60
29/09/2013 Show to everybody fossacesia 117.85 Km 1115 m 04:09:24 28.35 Km\h Colnago C60
26/09/2013 Show to everybody notaresco 98.83 Km 973 m 03:25:22 28.88 Km\h Colnago C60
25/09/2013 Show to everybody spoltore 34.28 Km 279 m 01:04:08 32.07 Km\h Colnago C60
24/09/2013 Show to everybody roccamontepiano 84.18 Km 1046 m 03:02:02 27.75 Km\h Colnago C60
22/09/2013 Show to everybody Montepagano Notaresco Atri 94.09 Km 1017 m 03:07:38 30.09 Km\h Colnago C60
19/09/2013 Show to everybody giro colli teatini 92.86 Km 1333 m 03:33:49 26.06 Km\h Colnago C60
17/09/2013 Show to everybody giro di Penne-Chieti 93.35 Km 1156 m 03:19:18 28.1 Km\h Colnago C60
15/09/2013 Show to everybody giro Castel frentano 119.7 Km 1125 m 04:03:27 29.5 Km\h Colnago C60
12/09/2013 Show to everybody giro di Paglieta 113.81 Km 1274 m 03:56:03 28.93 Km\h Colnago C60

Show previous years trainings
This user's bikes.
Colnago C60 329 32935.46 Km 313423 m 838:59:59 26.99 Km/h

1225 points
Kilometers
0
Vertical gain
2
Rank:12

Watch ranking »

 

Bike name

Delete this bike?

Now you follow this users and you can compare your trainings

If you stop following this users you will not be able to compare your trainings with his


bdc-forum.it | 2012-2019 Training Camp v.1.0.15